Time;durP1;ratioP1;P1;durP2;ratioP2;P2;SDS_P1;SDS_P2;PMS_P1;PMS_P2;Temp;Humidity;BMP_temperature;BMP_pressure;BME280_temperature;BME280_humidity;BME280_pressure;Samples;Min_cycle;Max_cycle;Signal;HPM_P1;HPM_P2
2022/12/07 00:01:12;;;;;;;7.15;1.25;;;2.70;99.90;;;;;;5002988;28;20042;-66
2022/12/07 00:03:39;;;;;;;6.30;1.52;;;2.70;99.90;;;;;;5001274;28;20042;-66
2022/12/07 00:06:06;;;;;;;5.63;1.65;;;2.70;99.90;;;;;;5003377;28;20062;-66
2022/12/07 00:08:33;;;;;;;6.90;1.15;;;2.60;99.90;;;;;;5001509;28;20116;-66
2022/12/07 00:11:03;;;;;;;9.00;1.13;;;2.50;99.90;;;;;;5004933;28;20046;-66
2022/12/07 00:13:30;;;;;;;9.15;1.25;;;2.50;99.90;;;;;;4988166;28;20124;-66
2022/12/07 00:15:59;;;;;;;6.65;0.95;;;2.40;99.90;;;;;;5008096;28;20493;-66
2022/12/07 00:18:25;;;;;;;4.45;1.00;;;2.40;99.90;;;;;;5005058;28;20474;-66
2022/12/07 00:20:51;;;;;;;11.00;1.23;;;2.30;99.90;;;;;;5006829;28;20077;-66
2022/12/07 00:23:16;;;;;;;9.57;1.27;;;2.30;99.90;;;;;;5006722;28;20120;-66
2022/12/07 00:25:42;;;;;;;3.38;0.88;;;2.20;99.90;;;;;;5005687;28;20276;-66
2022/12/07 00:28:09;;;;;;;5.88;0.98;;;2.30;99.90;;;;;;5006028;28;20044;-66
2022/12/07 00:30:35;;;;;;;7.50;1.90;;;2.20;99.90;;;;;;5005440;28;20113;-66
2022/12/07 00:33:01;;;;;;;8.52;2.05;;;2.30;99.90;;;;;;5005724;28;20140;-66
2022/12/07 00:35:26;;;;;;;5.63;1.08;;;2.30;99.90;;;;;;5009291;28;20052;-66
2022/12/07 00:37:52;;;;;;;11.15;1.60;;;2.40;99.90;;;;;;5008364;28;20037;-66
2022/12/07 00:40:18;;;;;;;10.90;1.58;;;2.40;99.90;;;;;;5003458;28;20046;-66
2022/12/07 00:42:43;;;;;;;6.93;1.23;;;2.50;99.90;;;;;;5006472;28;20038;-66
2022/12/07 00:45:09;;;;;;;7.13;1.52;;;2.50;99.90;;;;;;5004966;28;20493;-66
2022/12/07 00:47:35;;;;;;;9.00;1.75;;;2.50;99.90;;;;;;5007693;28;20454;-66
2022/12/07 00:50:00;;;;;;;7.30;1.58;;;2.50;99.90;;;;;;5005785;28;20101;-66
2022/12/07 00:52:26;;;;;;;7.72;1.38;;;2.50;99.90;;;;;;5009310;28;20050;-66
2022/12/07 00:54:52;;;;;;;6.82;1.30;;;2.50;99.90;;;;;;5004682;28;20038;-66
2022/12/07 00:57:18;;;;;;;8.68;1.23;;;2.50;99.90;;;;;;5004482;28;20038;-66
2022/12/07 00:59:43;;;;;;;8.30;1.48;;;2.50;99.90;;;;;;5007773;28;20030;-66
2022/12/07 01:02:09;;;;;;;8.82;1.48;;;2.50;99.90;;;;;;5007362;28;20038;-66
2022/12/07 01:04:35;;;;;;;12.07;1.50;;;2.50;99.90;;;;;;5009076;28;20091;-66
2022/12/07 01:07:00;;;;;;;9.13;1.45;;;2.50;99.90;;;;;;5001898;28;20041;-66
2022/12/07 01:09:26;;;;;;;7.35;1.58;;;2.50;99.90;;;;;;5002759;28;20049;-66
2022/12/07 01:11:51;;;;;;;7.55;1.20;;;2.50;99.90;;;;;;5005063;28;20046;-66
2022/12/07 01:14:17;;;;;;;8.73;1.40;;;2.60;99.90;;;;;;5004252;28;20041;-66
2022/12/07 01:16:43;;;;;;;7.50;1.40;;;2.60;99.90;;;;;;5004885;28;20048;-66
2022/12/07 01:19:09;;;;;;;8.25;1.48;;;2.60;99.90;;;;;;5004662;28;20046;-66
2022/12/07 01:21:37;;;;;;;7.35;1.42;;;2.60;99.90;;;;;;5002211;28;20078;-66
2022/12/07 01:24:05;;;;;;;9.48;1.50;;;2.70;99.90;;;;;;5011398;28;20052;-66
2022/12/07 01:26:30;;;;;;;14.63;1.73;;;2.60;99.90;;;;;;5002171;28;20376;-66
2022/12/07 01:28:58;;;;;;;7.80;1.23;;;2.70;99.90;;;;;;5010404;28;20049;-66
2022/12/07 01:31:25;;;;;;;7.88;0.93;;;2.80;99.90;;;;;;5006828;28;20111;-66
2022/12/07 01:33:57;;;;;;;10.70;1.85;;;2.90;99.90;;;;;;5007942;28;20061;-66
2022/12/07 01:36:31;;;;;;;8.45;1.27;;;3.10;99.90;;;;;;5003646;28;20435;-66
2022/12/07 01:39:00;;;;;;;10.95;1.30;;;3.10;99.90;;;;;;5006893;28;20053;-66
2022/12/07 01:41:29;;;;;;;10.65;1.10;;;3.10;99.90;;;;;;5002147;28;20046;-66
2022/12/07 01:44:15;;;;;;;5.95;0.90;;;3.20;99.90;;;;;;5004222;28;20038;-66
2022/12/07 01:46:44;;;;;;;9.77;0.98;;;3.30;99.90;;;;;;5004916;28;20034;-66
2022/12/07 01:49:15;;;;;;;6.07;0.80;;;3.30;99.90;;;;;;5003283;28;20053;-66
2022/12/07 01:51:43;;;;;;;5.07;1.05;;;3.30;99.90;;;;;;4981196;28;20054;-66
2022/12/07 01:54:12;;;;;;;3.33;0.38;;;3.30;99.90;;;;;;4983273;28;20081;-66
2022/12/07 01:56:40;;;;;;;7.80;1.65;;;3.30;99.90;;;;;;4980817;28;20102;-66
2022/12/07 01:59:05;;;;;;;5.22;0.82;;;3.30;99.90;;;;;;4986383;28;20455;-66
2022/12/07 02:01:31;;;;;;;5.53;1.23;;;3.30;99.90;;;;;;4980813;28;20092;-63
2022/12/07 02:03:58;;;;;;;8.20;1.60;;;3.40;99.90;;;;;;4978024;28;20038;-63
2022/12/07 02:06:25;;;;;;;9.02;2.53;;;3.30;99.90;;;;;;4980058;28;20097;-63
2022/12/07 02:08:52;;;;;;;10.32;2.63;;;3.30;99.90;;;;;;4982522;28;20034;-63
2022/12/07 02:11:18;;;;;;;9.75;2.63;;;3.20;99.90;;;;;;4976648;28;20046;-63
2022/12/07 02:13:46;;;;;;;5.68;2.33;;;3.10;99.90;;;;;;4982068;28;20081;-63
2022/12/07 02:16:27;;;;;;;8.55;2.75;;;3.10;99.90;;;;;;4983660;28;20266;-63
2022/12/07 02:19:17;;;;;;;8.13;2.58;;;3.00;99.90;;;;;;4981327;28;20129;-63
2022/12/07 02:21:56;;;;;;;7.07;1.95;;;3.00;99.90;;;;;;4980695;28;20046;-63
2022/12/07 02:24:48;;;;;;;9.20;2.25;;;2.90;99.90;;;;;;4983475;28;20039;-63
2022/12/07 02:27:39;;;;;;;8.63;1.50;;;2.80;99.90;;;;;;4983665;28;20053;-63
2022/12/07 02:30:11;;;;;;;7.57;1.42;;;2.70;99.90;;;;;;5003096;28;20046;-63
2022/12/07 02:32:43;;;;;;;9.40;1.00;;;2.60;99.90;;;;;;4977841;28;20035;-63
2022/12/07 02:35:36;;;;;;;13.80;1.38;;;2.70;99.90;;;;;;4983875;28;20529;-63
2022/12/07 02:38:08;;;;;;;7.40;1.17;;;2.50;99.90;;;;;;4980569;28;20054;-64
2022/12/07 02:40:56;;;;;;;7.15;0.90;;;2.50;99.90;;;;;;4982509;28;20109;-64
2022/12/07 02:43:30;;;;;;;5.70;1.08;;;2.40;99.90;;;;;;4980459;28;20124;-64
2022/12/07 02:46:08;;;;;;;7.03;0.73;;;2.40;99.90;;;;;;4979113;28;20078;-63
2022/12/07 02:48:35;;;;;;;5.55;1.10;;;2.40;99.90;;;;;;5014358;28;20035;-63
2022/12/07 02:51:00;;;;;;;8.52;0.90;;;2.40;99.90;;;;;;4993282;28;20156;-64
2022/12/07 02:53:29;;;;;;;8.95;1.15;;;2.40;99.90;;;;;;5000238;28;20042;-64
2022/12/07 02:55:55;;;;;;;10.00;0.90;;;2.50;99.90;;;;;;5002729;28;20050;-64
2022/12/07 02:58:32;;;;;;;8.05;1.08;;;2.50;99.90;;;;;;5005455;28;20140;-64
2022/12/07 03:01:18;;;;;;;6.85;0.82;;;2.50;99.90;;;;;;4999478;28;20129;-63
2022/12/07 03:03:49;;;;;;;9.30;1.17;;;2.50;99.90;;;;;;5000122;28;20038;-63
2022/12/07 03:06:27;;;;;;;8.00;0.75;;;2.60;99.90;;;;;;4999026;28;20082;-63
2022/12/07 03:09:03;;;;;;;6.63;0.80;;;2.50;99.90;;;;;;4998703;28;20042;-63
2022/12/07 03:11:56;;;;;;;10.00;1.02;;;2.50;99.90;;;;;;5002367;28;20081;-63
2022/12/07 03:14:33;;;;;;;6.90;0.90;;;2.50;99.90;;;;;;4997009;28;20045;-63
2022/12/07 03:17:11;;;;;;;7.72;0.90;;;2.50;99.90;;;;;;5000145;28;20034;-63
2022/12/07 03:19:39;;;;;;;5.07;0.60;;;2.50;99.90;;;;;;4998607;28;20042;-63
2022/12/07 03:22:12;;;;;;;10.27;0.70;;;2.50;99.90;;;;;;4997644;28;20128;-63
2022/12/07 03:24:44;;;;;;;11.00;0.70;;;2.60;99.90;;;;;;5029363;28;20045;-63
2022/12/07 03:27:32;;;;;;;9.30;1.10;;;2.60;99.90;;;;;;5001535;28;20046;-64
2022/12/07 03:30:07;;;;;;;7.95;0.82;;;2.60;99.90;;;;;;4995629;28;20137;-63
2022/12/07 03:32:38;;;;;;;8.38;0.95;;;2.70;99.90;;;;;;4997851;28;20049;-64
2022/12/07 03:35:19;;;;;;;11.93;0.63;;;2.70;99.90;;;;;;4997493;28;20445;-63
2022/12/07 03:37:55;;;;;;;4.88;0.60;;;2.90;99.90;;;;;;4999555;28;20042;-63
2022/12/07 03:40:51;;;;;;;6.50;0.93;;;2.90;99.90;;;;;;5000526;28;20816;-64
2022/12/07 03:43:19;;;;;;;6.03;0.52;;;2.90;99.90;;;;;;5002531;28;20046;-63
2022/12/07 03:45:59;;;;;;;9.98;0.90;;;2.90;99.90;;;;;;5001572;28;20042;-64
2022/12/07 03:48:37;;;;;;;9.55;0.90;;;2.90;99.90;;;;;;5001551;28;20562;-63
2022/12/07 03:51:28;;;;;;;11.02;1.20;;;2.80;99.90;;;;;;4994137;28;20050;-63
2022/12/07 03:54:21;;;;;;;7.07;0.73;;;2.80;99.90;;;;;;5001984;28;20540;-63
2022/12/07 03:56:48;;;;;;;5.65;0.90;;;2.80;99.90;;;;;;5027856;28;20048;-63
2022/12/07 03:59:16;;;;;;;6.30;0.60;;;2.80;99.90;;;;;;5001661;28;20034;-64
2022/12/07 04:01:44;;;;;;;5.18;0.60;;;2.80;99.90;;;;;;4997337;28;20039;-64
2022/12/07 04:04:10;;;;;;;11.73;2.30;;;2.80;99.90;;;;;;5000247;28;20510;-63
2022/12/07 04:06:36;;;;;;;7.80;0.52;;;2.70;99.90;;;;;;4995630;28;20089;-64
2022/12/07 04:09:02;;;;;;;3.08;0.52;;;2.60;99.90;;;;;;4999921;28;20038;-65
2022/12/07 04:11:27;;;;;;;9.15;0.80;;;2.60;99.90;;;;;;5000146;28;20038;-63
2022/12/07 04:16:37;;;;;;;5.70;1.05;;;2.50;99.90;;;;;;4994511;28;20557;-64
2022/12/07 04:19:03;;;;;;;8.40;0.77;;;2.50;99.90;;;;;;4999884;28;20039;-64
2022/12/07 04:21:28;;;;;;;4.22;0.57;;;2.40;99.90;;;;;;4999481;28;20452;-64
2022/12/07 04:23:54;;;;;;;9.25;1.10;;;2.40;99.90;;;;;;4996776;28;20038;-64
2022/12/07 04:26:20;;;;;;;5.93;0.80;;;2.30;99.90;;;;;;4996846;28;20062;-63
2022/12/07 04:28:45;;;;;;;10.20;0.88;;;2.30;99.90;;;;;;4998208;28;20113;-64
2022/12/07 04:31:11;;;;;;;8.27;0.50;;;2.20;99.90;;;;;;4999606;28;20363;-64
2022/12/07 04:33:37;;;;;;;7.32;0.82;;;2.20;99.90;;;;;;4998970;28;20034;-64
2022/12/07 04:36:03;;;;;;;7.53;0.70;;;2.10;99.90;;;;;;4997358;28;20130;-63
2022/12/07 04:38:28;;;;;;;10.25;0.70;;;2.10;99.90;;;;;;5002791;28;20447;-64
2022/12/07 04:40:54;;;;;;;8.70;0.63;;;2.00;99.90;;;;;;4999276;28;20117;-63
2022/12/07 04:43:20;;;;;;;8.00;0.80;;;2.00;99.90;;;;;;4996964;28;20052;-63
2022/12/07 04:45:47;;;;;;;11.48;0.77;;;2.10;99.90;;;;;;4997484;28;20120;-64
2022/12/07 04:48:13;;;;;;;5.10;0.63;;;2.10;99.90;;;;;;4998564;28;20076;-64
2022/12/07 04:50:38;;;;;;;8.48;0.80;;;2.20;99.90;;;;;;4998862;28;20074;-64
2022/12/07 04:53:04;;;;;;;7.18;1.08;;;2.30;99.90;;;;;;4999180;28;20043;-64
2022/12/07 04:55:30;;;;;;;7.07;0.60;;;2.40;99.90;;;;;;5003686;28;20034;-65
2022/12/07 04:57:55;;;;;;;7.47;0.63;;;2.60;99.90;;;;;;5000835;28;20421;-64
2022/12/07 05:00:21;;;;;;;9.00;0.88;;;2.70;99.90;;;;;;5000432;28;20283;-64
2022/12/07 05:02:47;;;;;;;8.20;1.00;;;2.80;99.90;;;;;;4997447;28;20060;-64
2022/12/07 05:05:12;;;;;;;8.70;0.90;;;2.80;99.90;;;;;;5003506;28;20163;-64
2022/12/07 05:07:38;;;;;;;10.15;0.55;;;2.80;99.90;;;;;;5001168;28;20034;-64
2022/12/07 05:10:05;;;;;;;5.35;0.68;;;2.70;99.90;;;;;;5004898;28;20033;-65
2022/12/07 05:12:30;;;;;;;7.30;0.93;;;2.70;99.90;;;;;;4999845;28;20129;-64
2022/12/07 05:14:56;;;;;;;9.52;0.77;;;2.70;99.90;;;;;;5004208;28;20541;-64
2022/12/07 05:17:22;;;;;;;10.38;0.55;;;2.60;99.90;;;;;;5002322;28;20041;-63
2022/12/07 05:19:47;;;;;;;9.07;0.68;;;2.50;99.90;;;;;;5003507;28;20045;-63
2022/12/07 05:22:13;;;;;;;4.85;0.60;;;2.50;99.90;;;;;;5006977;28;20093;-64
2022/12/07 05:24:39;;;;;;;9.55;0.90;;;2.40;99.90;;;;;;5002656;28;20091;-64
2022/12/07 05:27:05;;;;;;;8.23;1.45;;;2.40;99.90;;;;;;5002400;28;20038;-64
2022/12/07 05:29:31;;;;;;;9.43;0.77;;;2.30;99.90;;;;;;4997354;28;20043;-64
2022/12/07 05:31:56;;;;;;;10.65;0.85;;;2.30;99.90;;;;;;4997296;28;20159;-63
2022/12/07 05:34:22;;;;;;;8.65;0.70;;;2.20;99.90;;;;;;4996001;28;20038;-64
2022/12/07 05:36:48;;;;;;;12.90;0.70;;;2.10;99.90;;;;;;5002462;28;20061;-63
2022/12/07 05:39:14;;;;;;;8.85;0.55;;;2.00;99.90;;;;;;5000606;28;20423;-63
2022/12/07 05:44:24;;;;;;;7.13;0.90;;;2.00;99.90;;;;;;5003071;28;20405;-66
2022/12/07 05:46:50;;;;;;;9.48;0.65;;;1.90;99.90;;;;;;5007923;28;20042;-63
2022/12/07 05:49:16;;;;;;;6.60;0.80;;;1.90;99.90;;;;;;5003619;28;20042;-64
2022/12/07 05:51:41;;;;;;;8.95;1.02;;;1.90;99.90;;;;;;4999663;28;20061;-63
2022/12/07 05:54:07;;;;;;;10.07;0.95;;;1.90;99.90;;;;;;5001867;28;20099;-63
2022/12/07 05:56:33;;;;;;;7.22;0.82;;;1.90;99.90;;;;;;5000081;28;20490;-63
2022/12/07 06:01:43;;;;;;;5.13;0.85;;;2.00;99.90;;;;;;4996487;28;20437;-63
2022/12/07 06:04:09;;;;;;;10.38;0.93;;;1.90;99.90;;;;;;5003446;28;20038;-63
2022/12/07 06:06:34;;;;;;;9.60;1.00;;;1.90;99.90;;;;;;5003057;28;20124;-64
2022/12/07 06:09:00;;;;;;;9.90;1.08;;;2.00;99.90;;;;;;5005852;28;20041;-64
2022/12/07 06:14:10;;;;;;;6.72;0.70;;;2.00;99.90;;;;;;5001411;28;20140;-63
2022/12/07 06:16:36;;;;;;;8.15;0.63;;;2.00;99.90;;;;;;5031472;28;20128;-63
2022/12/07 06:19:01;;;;;;;4.10;0.80;;;2.00;99.90;;;;;;5003049;28;20042;-63
2022/12/07 06:21:27;;;;;;;10.32;0.88;;;2.00;99.90;;;;;;5001909;28;20497;-63
2022/12/07 06:23:53;;;;;;;7.57;0.85;;;2.00;99.90;;;;;;4998577;28;20477;-62
2022/12/07 06:26:19;;;;;;;10.55;0.93;;;2.10;99.90;;;;;;4997606;28;20042;-62
2022/12/07 06:28:45;;;;;;;7.90;1.17;;;2.10;99.90;;;;;;5000089;28;20038;-63
2022/12/07 06:31:11;;;;;;;13.48;1.00;;;2.20;99.90;;;;;;4998127;28;20367;-63
2022/12/07 06:33:36;;;;;;;8.02;0.60;;;2.20;99.90;;;;;;4996470;28;20046;-63
2022/12/07 06:36:02;;;;;;;6.30;0.68;;;2.30;99.90;;;;;;4995033;28;20104;-62
2022/12/07 06:38:28;;;;;;;12.73;0.98;;;2.40;99.90;;;;;;4998170;28;20080;-62
2022/12/07 06:40:54;;;;;;;7.43;0.93;;;2.40;99.90;;;;;;4999390;28;20103;-63
2022/12/07 06:43:20;;;;;;;8.68;0.80;;;2.40;99.90;;;;;;4995062;28;20048;-63
2022/12/07 06:45:45;;;;;;;10.70;0.80;;;2.50;99.90;;;;;;4995102;28;20470;-63
2022/12/07 06:48:11;;;;;;;8.27;0.98;;;2.50;99.90;;;;;;4995648;28;20053;-64
2022/12/07 06:50:37;;;;;;;7.20;0.88;;;2.40;99.90;;;;;;4994380;28;20410;-64
2022/12/07 06:53:02;;;;;;;8.15;0.80;;;2.40;99.90;;;;;;4996065;28;20069;-64
2022/12/07 06:55:28;;;;;;;11.38;0.85;;;2.40;99.90;;;;;;4994204;28;20035;-64
2022/12/07 06:57:54;;;;;;;3.95;0.55;;;2.40;99.90;;;;;;4996503;28;20129;-64
2022/12/07 07:00:20;;;;;;;5.82;0.70;;;2.40;99.90;;;;;;5029062;28;20067;-64
2022/12/07 07:02:45;;;;;;;6.90;0.60;;;2.40;99.90;;;;;;4990869;28;20034;-63
2022/12/07 07:05:11;;;;;;;14.18;1.27;;;2.50;99.90;;;;;;4996512;28;20622;-63
2022/12/07 07:07:37;;;;;;;9.02;1.17;;;2.50;99.90;;;;;;4997355;28;20031;-64
2022/12/07 07:10:03;;;;;;;12.18;1.95;;;2.60;99.90;;;;;;4999178;28;20038;-63
2022/12/07 07:12:29;;;;;;;10.07;1.63;;;2.60;99.90;;;;;;4997281;28;20359;-63
2022/12/07 07:14:54;;;;;;;8.38;0.82;;;2.70;99.90;;;;;;4998688;28;20034;-63
2022/12/07 07:17:20;;;;;;;11.32;0.82;;;2.80;99.90;;;;;;5003039;28;20393;-64
2022/12/07 07:19:46;;;;;;;9.32;0.60;;;2.80;99.90;;;;;;4996937;28;20046;-63
2022/12/07 07:22:11;;;;;;;7.55;1.10;;;2.90;99.90;;;;;;4995296;28;20109;-63
2022/12/07 07:24:37;;;;;;;8.10;0.98;;;3.00;99.90;;;;;;5000188;28;20133;-63
2022/12/07 07:27:03;;;;;;;6.40;0.98;;;3.00;99.90;;;;;;4995747;28;20490;-64
2022/12/07 07:29:28;;;;;;;11.93;1.27;;;3.00;99.90;;;;;;5000742;28;20382;-63
2022/12/07 07:31:54;;;;;;;10.93;0.85;;;2.90;99.90;;;;;;4998769;28;20422;-63
2022/12/07 07:34:20;;;;;;;13.52;0.90;;;2.90;99.90;;;;;;5000904;28;20041;-63
2022/12/07 07:36:45;;;;;;;9.82;1.08;;;2.90;99.90;;;;;;4994471;28;20045;-63
2022/12/07 07:39:12;;;;;;;8.88;0.77;;;2.80;99.90;;;;;;4998349;28;20037;-63
2022/12/07 07:41:38;;;;;;;8.88;1.05;;;2.70;99.90;;;;;;4990498;28;20121;-64
2022/12/07 07:44:04;;;;;;;7.55;0.70;;;2.70;99.90;;;;;;4993115;28;20113;-63
2022/12/07 07:46:30;;;;;;;8.00;1.02;;;2.60;99.90;;;;;;4996335;28;20038;-63
2022/12/07 07:48:55;;;;;;;6.72;1.10;;;2.70;99.90;;;;;;4994540;28;20402;-63
2022/12/07 07:51:21;;;;;;;11.82;0.75;;;2.70;99.90;;;;;;4992309;28;20061;-63
2022/12/07 07:53:47;;;;;;;6.40;0.70;;;2.70;99.90;;;;;;4997152;28;20144;-63
2022/12/07 07:56:12;;;;;;;6.22;0.60;;;2.70;99.90;;;;;;4998930;28;20520;-63
2022/12/07 07:58:39;;;;;;;9.18;0.80;;;2.80;99.90;;;;;;4994769;28;20097;-63
2022/12/07 08:01:08;;;;;;;9.43;1.63;;;2.80;99.90;;;;;;5027884;28;20089;-64
2022/12/07 08:03:34;;;;;;;8.30;1.15;;;2.80;99.90;;;;;;4998032;28;20062;-63
2022/12/07 08:06:04;;;;;;;10.93;1.65;;;2.90;99.90;;;;;;4996474;28;20100;-63
2022/12/07 08:08:30;;;;;;;8.05;0.88;;;2.90;99.90;;;;;;4995093;28;20088;-62
2022/12/07 08:10:56;;;;;;;7.30;0.70;;;2.90;99.90;;;;;;5003378;28;20038;-62
2022/12/07 08:13:21;;;;;;;11.23;1.00;;;2.90;99.90;;;;;;4995701;28;21108;-63
2022/12/07 08:15:48;;;;;;;12.43;1.10;;;3.00;99.90;;;;;;4996050;28;20034;-63
2022/12/07 08:18:14;;;;;;;12.07;1.23;;;3.00;99.90;;;;;;4994205;28;20081;-63
2022/12/07 08:20:41;;;;;;;7.10;0.52;;;3.00;99.90;;;;;;4997524;28;20038;-63
2022/12/07 08:23:08;;;;;;;7.50;0.98;;;3.00;99.90;;;;;;4998231;28;20104;-63
2022/12/07 08:25:34;;;;;;;9.20;1.00;;;3.00;99.90;;;;;;4995972;28;20505;-62
2022/12/07 08:28:00;;;;;;;4.90;0.80;;;3.00;99.90;;;;;;5001011;28;20075;-63
2022/12/07 08:30:27;;;;;;;8.80;1.13;;;2.90;99.90;;;;;;4995335;28;20065;-62
2022/12/07 08:32:52;;;;;;;6.05;0.68;;;2.80;99.90;;;;;;5001443;28;20261;-63
2022/12/07 08:35:18;;;;;;;6.13;1.00;;;2.80;99.90;;;;;;4995579;28;20434;-64
2022/12/07 08:37:44;;;;;;;6.00;0.60;;;2.80;99.90;;;;;;4998562;28;20128;-62
2022/12/07 08:40:15;;;;;;;6.82;0.90;;;2.80;99.90;;;;;;4995459;28;20054;-63
2022/12/07 08:42:44;;;;;;;8.07;1.00;;;2.80;99.90;;;;;;4999446;28;20072;-63
2022/12/07 08:45:13;;;;;;;7.57;0.88;;;2.80;99.90;;;;;;5000608;28;20060;-64
2022/12/07 08:47:48;;;;;;;7.22;0.90;;;2.90;99.90;;;;;;4999850;28;20472;-63
2022/12/07 08:50:14;;;;;;;8.90;1.38;;;3.10;99.90;;;;;;4998887;28;20210;-63
2022/12/07 08:52:41;;;;;;;8.02;1.25;;;3.20;99.90;;;;;;5002197;28;20046;-63
2022/12/07 08:55:09;;;;;;;11.18;0.98;;;3.20;99.90;;;;;;4999906;28;20532;-63
2022/12/07 08:57:36;;;;;;;11.48;1.40;;;3.20;99.90;;;;;;4997100;28;20414;-62
2022/12/07 09:00:03;;;;;;;8.13;1.25;;;3.30;99.90;;;;;;5002030;28;20501;-63
2022/12/07 09:02:31;;;;;;;9.30;1.20;;;3.30;99.90;;;;;;5005810;28;20034;-64
2022/12/07 09:04:57;;;;;;;7.35;1.38;;;3.40;99.90;;;;;;5002706;28;20478;-63
2022/12/07 09:07:23;;;;;;;12.65;1.30;;;3.50;99.90;;;;;;5002015;28;20141;-63
2022/12/07 09:09:48;;;;;;;11.50;1.10;;;3.60;99.90;;;;;;5003237;28;20128;-62
2022/12/07 09:12:14;;;;;;;11.25;1.33;;;3.60;99.90;;;;;;5003556;28;20187;-63
2022/12/07 09:14:40;;;;;;;9.23;1.20;;;3.70;99.90;;;;;;5003597;28;20045;-62
2022/12/07 09:17:11;;;;;;;7.03;1.42;;;3.70;99.90;;;;;;5005204;28;20034;-63
2022/12/07 09:19:37;;;;;;;9.95;1.88;;;3.70;99.90;;;;;;5002531;28;20049;-63
2022/12/07 09:22:07;;;;;;;6.22;0.80;;;3.60;99.90;;;;;;4998347;28;20057;-62
2022/12/07 09:24:33;;;;;;;12.68;1.30;;;3.50;99.90;;;;;;5003804;28;20519;-63
2022/12/07 09:26:58;;;;;;;10.85;1.02;;;3.50;99.90;;;;;;4998232;28;20391;-63
2022/12/07 09:29:24;;;;;;;8.50;1.20;;;3.40;99.90;;;;;;4999661;28;20060;-62
2022/12/07 09:31:52;;;;;;;8.50;1.08;;;3.40;99.90;;;;;;5002145;28;20077;-62
2022/12/07 09:34:18;;;;;;;10.30;1.40;;;3.40;99.90;;;;;;5005727;28;20482;-62
2022/12/07 09:36:44;;;;;;;6.72;1.27;;;3.40;99.90;;;;;;5003587;28;20041;-62
2022/12/07 09:39:10;;;;;;;8.35;1.10;;;3.50;99.90;;;;;;5001679;28;20042;-63
2022/12/07 09:41:40;;;;;;;8.43;1.02;;;3.60;99.90;;;;;;4998338;28;20062;-63
2022/12/07 09:44:26;;;;;;;6.97;0.95;;;3.80;99.90;;;;;;4999022;28;20061;-63
2022/12/07 09:46:53;;;;;;;5.95;0.98;;;4.00;99.90;;;;;;5001949;28;20038;-63
2022/12/07 09:49:27;;;;;;;12.57;2.33;;;4.10;99.90;;;;;;5005231;28;20100;-63
2022/12/07 09:52:07;;;;;;;13.27;1.45;;;4.30;99.90;;;;;;5001008;28;20061;-64
2022/12/07 09:54:36;;;;;;;8.90;1.55;;;4.40;99.90;;;;;;5013411;28;20108;-62
2022/12/07 09:57:02;;;;;;;8.15;1.48;;;4.40;99.90;;;;;;4999065;28;20498;-65
2022/12/07 09:59:28;;;;;;;5.95;1.38;;;4.50;99.90;;;;;;5003765;28;20057;-63
2022/12/07 10:01:55;;;;;;;11.30;1.50;;;4.50;99.90;;;;;;5000667;28;20050;-62
2022/12/07 10:04:25;;;;;;;8.82;1.27;;;4.40;99.90;;;;;;4999986;28;20096;-63
2022/12/07 10:06:51;;;;;;;10.07;1.50;;;4.40;99.90;;;;;;4996839;28;20073;-63
2022/12/07 10:09:21;;;;;;;6.78;1.08;;;4.40;99.90;;;;;;5002411;28;20069;-64
2022/12/07 10:12:06;;;;;;;11.43;1.20;;;4.40;99.90;;;;;;5000786;28;20051;-65
2022/12/07 10:14:35;;;;;;;7.80;0.82;;;4.30;99.90;;;;;;5000515;28;20141;-64
2022/12/07 10:17:00;;;;;;;8.88;1.40;;;4.30;99.90;;;;;;4996283;28;20117;-63
2022/12/07 10:19:33;;;;;;;9.82;1.52;;;4.40;99.90;;;;;;4997994;28;20101;-65
2022/12/07 10:22:05;;;;;;;11.02;1.33;;;4.40;99.90;;;;;;5031740;28;20054;-63
2022/12/07 10:24:32;;;;;;;6.03;1.20;;;4.50;99.90;;;;;;5003436;28;20030;-63
2022/12/07 10:26:58;;;;;;;6.45;0.90;;;4.50;99.90;;;;;;4998252;28;20449;-63
2022/12/07 10:29:36;;;;;;;6.93;1.00;;;4.60;99.90;;;;;;4997853;28;20111;-63
2022/12/07 10:32:15;;;;;;;10.15;1.10;;;4.70;99.90;;;;;;5002594;28;20156;-63
2022/12/07 10:34:41;;;;;;;7.18;1.15;;;4.90;99.90;;;;;;4999271;28;20050;-63
2022/12/07 10:37:16;;;;;;;10.85;1.45;;;4.90;99.90;;;;;;4998379;28;20057;-64
2022/12/07 10:39:50;;;;;;;9.02;1.10;;;5.00;99.90;;;;;;5027324;28;20046;-64
2022/12/07 10:42:17;;;;;;;6.82;0.90;;;5.10;99.90;;;;;;4999871;28;20077;-63
2022/12/07 10:44:43;;;;;;;8.00;1.13;;;5.20;99.90;;;;;;5001867;28;20042;-63
2022/12/07 10:47:36;;;;;;;12.10;1.25;;;5.40;99.90;;;;;;4998338;28;20124;-63
2022/12/07 10:50:14;;;;;;;4.60;0.90;;;5.40;99.90;;;;;;4992748;28;20062;-64
2022/12/07 10:53:14;;;;;;;6.07;1.02;;;5.40;99.90;;;;;;5029195;28;20050;-63
2022/12/07 10:55:55;;;;;;;8.48;1.17;;;5.40;99.90;;;;;;5027704;28;20053;-64
2022/12/07 10:59:03;;;;;;;6.57;0.98;;;5.40;99.90;;;;;;5023592;28;20089;-66
2022/12/07 11:01:33;;;;;;;8.18;1.00;;;5.40;99.90;;;;;;4979448;28;20046;-64
2022/12/07 11:04:21;;;;;;;8.30;1.13;;;5.40;99.90;;;;;;4992281;28;20081;-63
2022/12/07 11:07:21;;;;;;;4.65;1.73;;;5.40;99.90;;;;;;4993524;28;20037;-64
2022/12/07 11:10:02;;;;;;;4.90;1.02;;;5.50;99.90;;;;;;4995307;28;20422;-63
2022/12/07 11:12:39;;;;;;;8.38;1.25;;;5.60;99.90;;;;;;4996885;28;20042;-64
2022/12/07 11:15:21;;;;;;;9.07;0.95;;;5.60;99.90;;;;;;4996515;28;20435;-63
2022/12/07 11:18:05;;;;;;;7.88;1.52;;;5.60;99.90;;;;;;4999098;28;20100;-64
2022/12/07 11:20:56;;;;;;;9.68;1.13;;;5.60;99.90;;;;;;4993526;28;20121;-64
2022/12/07 11:24:00;;;;;;;9.30;1.65;;;5.60;99.90;;;;;;4995310;28;20049;-63
2022/12/07 11:26:37;;;;;;;6.90;1.10;;;5.60;99.90;;;;;;4997181;28;20074;-65
2022/12/07 11:29:30;;;;;;;12.52;1.15;;;5.60;99.90;;;;;;4993354;28;20046;-64
2022/12/07 11:32:04;;;;;;;9.13;1.17;;;5.60;99.90;;;;;;4993400;28;20445;-63
2022/12/07 11:34:32;;;;;;;5.65;1.35;;;5.50;99.90;;;;;;4997232;28;20088;-64
2022/12/07 11:37:02;;;;;;;6.97;1.00;;;5.50;99.90;;;;;;4991888;28;20080;-64
2022/12/07 11:39:39;;;;;;;3.50;0.70;;;5.50;99.90;;;;;;4994125;28;20041;-64
2022/12/07 11:42:20;;;;;;;8.48;1.33;;;5.50;99.90;;;;;;4993004;28;20041;-64
2022/12/07 11:45:16;;;;;;;6.45;1.00;;;5.50;99.90;;;;;;4993512;28;20035;-64
2022/12/07 11:48:10;;;;;;;6.85;0.90;;;5.50;99.90;;;;;;4994180;28;20044;-65
2022/12/07 11:50:44;;;;;;;8.07;1.00;;;5.40;99.90;;;;;;4991265;28;20054;-64
2022/12/07 11:53:18;;;;;;;7.40;1.10;;;5.50;99.90;;;;;;4998467;28;20125;-64
2022/12/07 11:55:51;;;;;;;6.40;0.85;;;5.50;99.90;;;;;;4992436;28;20046;-65
2022/12/07 11:58:29;;;;;;;7.25;1.15;;;5.40;99.90;;;;;;4994798;28;20438;-64
2022/12/07 12:01:04;;;;;;;7.85;1.55;;;5.40;99.90;;;;;;4999551;28;20038;-64
2022/12/07 12:03:36;;;;;;;10.65;1.65;;;5.40;99.90;;;;;;5001922;28;20136;-64
2022/12/07 12:06:02;;;;;;;6.75;1.00;;;5.50;99.90;;;;;;4982812;28;20050;-65
2022/12/07 12:08:32;;;;;;;8.25;1.00;;;5.50;99.90;;;;;;5003822;28;20030;-64
2022/12/07 12:11:37;;;;;;;10.63;1.23;;;5.50;99.90;;;;;;4997528;28;20482;-64
2022/12/07 12:14:36;;;;;;;6.13;0.88;;;5.60;99.90;;;;;;4998358;28;20085;-64
2022/12/07 12:17:13;;;;;;;11.77;1.15;;;5.70;99.90;;;;;;5007493;28;20053;-64
2022/12/07 12:20:07;;;;;;;12.00;0.98;;;5.70;99.90;;;;;;5002491;28;20417;-64
2022/12/07 12:22:40;;;;;;;6.80;1.40;;;5.70;99.90;;;;;;5006814;28;20123;-64
2022/12/07 12:25:17;;;;;;;8.65;1.58;;;5.80;99.90;;;;;;5004094;28;20487;-64
2022/12/07 12:27:47;;;;;;;4.78;1.10;;;5.80;99.90;;;;;;5001069;28;20046;-64
2022/12/07 12:30:29;;;;;;;6.95;1.45;;;5.80;99.90;;;;;;5009470;28;20081;-64
2022/12/07 12:33:21;;;;;;;5.75;1.25;;;5.80;99.90;;;;;;5001722;28;20274;-64
2022/12/07 12:36:16;;;;;;;5.88;0.85;;;5.80;99.90;;;;;;5005850;28;20100;-64
2022/12/07 12:38:58;;;;;;;8.97;1.17;;;5.80;99.90;;;;;;5006760;28;20073;-64
2022/12/07 12:42:05;;;;;;;6.65;1.30;;;5.90;99.90;;;;;;5001470;28;20122;-64
2022/12/07 12:44:33;;;;;;;7.90;0.93;;;5.90;99.90;;;;;;5004243;28;20082;-64
2022/12/07 12:47:23;;;;;;;7.90;1.20;;;6.00;99.90;;;;;;5001717;28;20082;-64
2022/12/07 12:50:16;;;;;;;7.88;1.17;;;6.00;99.90;;;;;;5003980;28;20109;-65
2022/12/07 12:52:41;;;;;;;5.20;0.57;;;6.10;99.90;;;;;;5001253;28;20054;-64
2022/12/07 12:55:07;;;;;;;5.28;0.70;;;6.00;99.90;;;;;;5003545;28;20053;-64
2022/12/07 12:57:33;;;;;;;5.80;0.90;;;6.00;99.90;;;;;;5004386;28;20128;-64
2022/12/07 13:00:03;;;;;;;8.88;1.20;;;6.00;99.90;;;;;;5003478;28;20038;-65
2022/12/07 13:02:47;;;;;;;6.60;0.57;;;6.00;99.90;;;;;;5004705;28;20041;-64
2022/12/07 13:05:12;;;;;;;5.30;0.88;;;6.00;99.90;;;;;;5006552;28;20038;-64
2022/12/07 13:07:47;;;;;;;4.43;0.70;;;5.90;99.90;;;;;;5002561;28;20377;-65
2022/12/07 13:10:43;;;;;;;4.28;0.55;;;5.80;99.90;;;;;;5004996;28;20298;-64
2022/12/07 13:13:14;;;;;;;6.63;0.52;;;5.70;99.90;;;;;;5000226;28;20556;-64
2022/12/07 13:15:49;;;;;;;1.25;0.20;;;5.50;99.90;;;;;;5002132;28;20042;-65
2022/12/07 13:18:33;;;;;;;4.28;0.43;;;5.30;99.90;;;;;;4997407;28;20065;-65
2022/12/07 13:21:07;;;;;;;1.80;0.25;;;5.10;99.90;;;;;;4998042;28;20057;-65
2022/12/07 13:23:39;;;;;;;3.83;0.60;;;4.90;99.90;;;;;;5003637;28;20040;-65
2022/12/07 13:26:35;;;;;;;2.42;0.30;;;4.80;99.90;;;;;;5000053;28;20048;-64